sensor_id;sensor_type;location;lat;lon;timestamp;temperature;humidity
44894;DHT22;30625;52.206;21.030;2023-08-24T00:00:50;20.70;92.30
44894;DHT22;30625;52.206;21.030;2023-08-24T00:03:16;20.60;92.40
44894;DHT22;30625;52.206;21.030;2023-08-24T00:06:03;20.60;92.20
44894;DHT22;30625;52.206;21.030;2023-08-24T00:08:28;20.50;92.70
44894;DHT22;30625;52.206;21.030;2023-08-24T00:11:02;20.50;92.60
44894;DHT22;30625;52.206;21.030;2023-08-24T00:13:27;20.40;92.50
44894;DHT22;30625;52.206;21.030;2023-08-24T00:15:53;20.40;92.40
44894;DHT22;30625;52.206;21.030;2023-08-24T00:18:21;20.40;92.50
44894;DHT22;30625;52.206;21.030;2023-08-24T00:20:50;20.40;92.00
44894;DHT22;30625;52.206;21.030;2023-08-24T00:23:16;20.30;92.20
44894;DHT22;30625;52.206;21.030;2023-08-24T00:25:42;20.30;92.30
44894;DHT22;30625;52.206;21.030;2023-08-24T00:28:07;20.30;92.30
44894;DHT22;30625;52.206;21.030;2023-08-24T00:30:33;20.20;92.30
44894;DHT22;30625;52.206;21.030;2023-08-24T00:32:58;20.20;92.70
44894;DHT22;30625;52.206;21.030;2023-08-24T00:35:24;20.30;92.70
44894;DHT22;30625;52.206;21.030;2023-08-24T00:37:50;20.20;92.50
44894;DHT22;30625;52.206;21.030;2023-08-24T00:40:16;20.30;92.80
44894;DHT22;30625;52.206;21.030;2023-08-24T00:42:45;20.20;92.60
44894;DHT22;30625;52.206;21.030;2023-08-24T00:45:14;20.20;93.00
44894;DHT22;30625;52.206;21.030;2023-08-24T00:47:45;20.10;93.40
44894;DHT22;30625;52.206;21.030;2023-08-24T00:50:11;20.10;93.20
44894;DHT22;30625;52.206;21.030;2023-08-24T00:52:38;20.10;93.30
44894;DHT22;30625;52.206;21.030;2023-08-24T00:55:05;20.10;93.50
44894;DHT22;30625;52.206;21.030;2023-08-24T00:57:31;20.10;93.60
44894;DHT22;30625;52.206;21.030;2023-08-24T00:59:57;20.00;93.30
44894;DHT22;30625;52.206;21.030;2023-08-24T01:02:24;20.00;93.10
44894;DHT22;30625;52.206;21.030;2023-08-24T01:04:49;19.90;93.40
44894;DHT22;30625;52.206;21.030;2023-08-24T01:07:15;19.90;93.40
44894;DHT22;30625;52.206;21.030;2023-08-24T01:09:42;19.90;94.20
44894;DHT22;30625;52.206;21.030;2023-08-24T01:12:20;19.90;93.30
44894;DHT22;30625;52.206;21.030;2023-08-24T01:15:07;19.90;93.30
44894;DHT22;30625;52.206;21.030;2023-08-24T01:17:35;19.90;93.30
44894;DHT22;30625;52.206;21.030;2023-08-24T01:20:01;19.90;93.30
44894;DHT22;30625;52.206;21.030;2023-08-24T01:24:54;19.90;93.40
44894;DHT22;30625;52.206;21.030;2023-08-24T01:27:25;20.00;93.10
44894;DHT22;30625;52.206;21.030;2023-08-24T01:29:51;20.00;92.70
44894;DHT22;30625;52.206;21.030;2023-08-24T01:32:18;20.00;92.40
44894;DHT22;30625;52.206;21.030;2023-08-24T01:34:43;20.00;92.10
44894;DHT22;30625;52.206;21.030;2023-08-24T01:37:09;20.00;92.20
44894;DHT22;30625;52.206;21.030;2023-08-24T01:39:46;20.10;92.90
44894;DHT22;30625;52.206;21.030;2023-08-24T01:42:14;20.00;92.20
44894;DHT22;30625;52.206;21.030;2023-08-24T01:44:42;20.00;92.30
44894;DHT22;30625;52.206;21.030;2023-08-24T01:47:10;20.00;91.90
44894;DHT22;30625;52.206;21.030;2023-08-24T01:49:37;18.30;91.70
44894;DHT22;30625;52.206;21.030;2023-08-24T01:52:02;20.00;92.10
44894;DHT22;30625;52.206;21.030;2023-08-24T01:54:29;20.00;91.90
44894;DHT22;30625;52.206;21.030;2023-08-24T01:56:55;20.00;92.30
44894;DHT22;30625;52.206;21.030;2023-08-24T01:59:20;20.00;92.10
44894;DHT22;30625;52.206;21.030;2023-08-24T02:01:46;19.90;92.00
44894;DHT22;30625;52.206;21.030;2023-08-24T02:04:11;19.90;92.20
44894;DHT22;30625;52.206;21.030;2023-08-24T02:06:37;19.80;92.00
44894;DHT22;30625;52.206;21.030;2023-08-24T02:09:02;19.90;91.90
44894;DHT22;30625;52.206;21.030;2023-08-24T02:11:28;19.90;92.40
44894;DHT22;30625;52.206;21.030;2023-08-24T02:13:54;19.80;92.30
44894;DHT22;30625;52.206;21.030;2023-08-24T02:16:19;19.80;92.30
44894;DHT22;30625;52.206;21.030;2023-08-24T02:18:45;19.80;92.60
44894;DHT22;30625;52.206;21.030;2023-08-24T02:21:10;19.70;92.60
44894;DHT22;30625;52.206;21.030;2023-08-24T02:23:37;19.70;92.50
44894;DHT22;30625;52.206;21.030;2023-08-24T02:26:03;19.70;92.60
44894;DHT22;30625;52.206;21.030;2023-08-24T02:28:30;19.70;92.70
44894;DHT22;30625;52.206;21.030;2023-08-24T02:30:59;19.70;92.80
44894;DHT22;30625;52.206;21.030;2023-08-24T02:33:25;19.60;92.80
44894;DHT22;30625;52.206;21.030;2023-08-24T02:35:51;19.60;92.40
44894;DHT22;30625;52.206;21.030;2023-08-24T02:38:16;19.60;92.60
44894;DHT22;30625;52.206;21.030;2023-08-24T02:40:42;19.60;92.70
44894;DHT22;30625;52.206;21.030;2023-08-24T02:43:07;19.60;93.20
44894;DHT22;30625;52.206;21.030;2023-08-24T02:45:33;19.60;92.90
44894;DHT22;30625;52.206;21.030;2023-08-24T02:47:58;19.60;93.20
44894;DHT22;30625;52.206;21.030;2023-08-24T02:50:24;19.60;93.00
44894;DHT22;30625;52.206;21.030;2023-08-24T02:52:49;19.60;93.20
44894;DHT22;30625;52.206;21.030;2023-08-24T02:55:16;19.60;93.00
44894;DHT22;30625;52.206;21.030;2023-08-24T02:57:42;19.60;93.50
44894;DHT22;30625;52.206;21.030;2023-08-24T03:00:08;19.60;93.60
44894;DHT22;30625;52.206;21.030;2023-08-24T03:02:35;19.60;93.70
44894;DHT22;30625;52.206;21.030;2023-08-24T03:05:01;19.60;93.70
44894;DHT22;30625;52.206;21.030;2023-08-24T03:07:27;19.50;93.50
44894;DHT22;30625;52.206;21.030;2023-08-24T03:09:53;19.50;93.60
44894;DHT22;30625;52.206;21.030;2023-08-24T03:12:18;19.50;93.50
44894;DHT22;30625;52.206;21.030;2023-08-24T03:14:44;19.50;93.70
44894;DHT22;30625;52.206;21.030;2023-08-24T03:17:09;19.50;93.90
44894;DHT22;30625;52.206;21.030;2023-08-24T03:19:35;19.60;94.40
44894;DHT22;30625;52.206;21.030;2023-08-24T03:22:01;19.40;94.10
44894;DHT22;30625;52.206;21.030;2023-08-24T03:24:26;19.50;94.20
44894;DHT22;30625;52.206;21.030;2023-08-24T03:26:52;19.50;94.30
44894;DHT22;30625;52.206;21.030;2023-08-24T03:29:17;19.40;94.50
44894;DHT22;30625;52.206;21.030;2023-08-24T03:31:43;19.40;95.10
44894;DHT22;30625;52.206;21.030;2023-08-24T03:34:08;19.40;94.80
44894;DHT22;30625;52.206;21.030;2023-08-24T03:36:34;19.40;95.00
44894;DHT22;30625;52.206;21.030;2023-08-24T03:38:59;19.30;95.00
44894;DHT22;30625;52.206;21.030;2023-08-24T03:41:25;19.30;94.70
44894;DHT22;30625;52.206;21.030;2023-08-24T03:43:50;19.30;94.80
44894;DHT22;30625;52.206;21.030;2023-08-24T03:46:16;19.20;95.00
44894;DHT22;30625;52.206;21.030;2023-08-24T03:48:41;19.20;95.00
44894;DHT22;30625;52.206;21.030;2023-08-24T03:51:07;19.30;94.40
44894;DHT22;30625;52.206;21.030;2023-08-24T03:53:32;19.30;94.90
44894;DHT22;30625;52.206;21.030;2023-08-24T03:55:58;19.30;94.00
44894;DHT22;30625;52.206;21.030;2023-08-24T03:58:23;19.30;93.70
44894;DHT22;30625;52.206;21.030;2023-08-24T04:00:49;19.20;93.80
44894;DHT22;30625;52.206;21.030;2023-08-24T04:03:15;19.30;93.80
44894;DHT22;30625;52.206;21.030;2023-08-24T04:05:41;19.30;93.70
44894;DHT22;30625;52.206;21.030;2023-08-24T04:08:06;19.30;93.90
44894;DHT22;30625;52.206;21.030;2023-08-24T04:10:32;19.30;94.00
44894;DHT22;30625;52.206;21.030;2023-08-24T04:12:58;19.20;93.80
44894;DHT22;30625;52.206;21.030;2023-08-24T04:15:23;19.30;94.80
44894;DHT22;30625;52.206;21.030;2023-08-24T04:17:49;18.30;94.10
44894;DHT22;30625;52.206;21.030;2023-08-24T04:20:15;18.60;93.70
44894;DHT22;30625;52.206;21.030;2023-08-24T04:22:41;19.30;93.90
44894;DHT22;30625;52.206;21.030;2023-08-24T04:25:07;19.40;94.30
44894;DHT22;30625;52.206;21.030;2023-08-24T04:27:33;18.40;93.40
44894;DHT22;30625;52.206;21.030;2023-08-24T04:29:58;19.40;94.50
44894;DHT22;30625;52.206;21.030;2023-08-24T04:32:24;19.40;94.10
44894;DHT22;30625;52.206;21.030;2023-08-24T04:34:49;19.40;94.50
44894;DHT22;30625;52.206;21.030;2023-08-24T04:37:15;19.40;93.80
44894;DHT22;30625;52.206;21.030;2023-08-24T04:39:41;19.50;94.00
44894;DHT22;30625;52.206;21.030;2023-08-24T04:42:06;19.40;93.80
44894;DHT22;30625;52.206;21.030;2023-08-24T04:44:32;19.50;94.10
44894;DHT22;30625;52.206;21.030;2023-08-24T04:46:58;19.50;93.50
44894;DHT22;30625;52.206;21.030;2023-08-24T04:49:23;19.50;93.70
44894;DHT22;30625;52.206;21.030;2023-08-24T04:51:49;19.60;93.50
44894;DHT22;30625;52.206;21.030;2023-08-24T04:54:15;19.60;93.40
44894;DHT22;30625;52.206;21.030;2023-08-24T04:56:40;19.60;93.40
44894;DHT22;30625;52.206;21.030;2023-08-24T04:59:06;19.60;93.00
44894;DHT22;30625;52.206;21.030;2023-08-24T05:01:33;19.70;93.00
44894;DHT22;30625;52.206;21.030;2023-08-24T05:03:59;19.80;93.00
44894;DHT22;30625;52.206;21.030;2023-08-24T05:06:24;19.90;93.10
44894;DHT22;30625;52.206;21.030;2023-08-24T05:11:17;20.00;92.50
44894;DHT22;30625;52.206;21.030;2023-08-24T05:13:43;20.10;92.90
44894;DHT22;30625;52.206;21.030;2023-08-24T05:16:09;20.10;92.60
44894;DHT22;30625;52.206;21.030;2023-08-24T05:18:35;20.20;92.20
44894;DHT22;30625;52.206;21.030;2023-08-24T05:21:04;20.20;92.90
44894;DHT22;30625;52.206;21.030;2023-08-24T05:23:33;20.20;92.10
44894;DHT22;30625;52.206;21.030;2023-08-24T05:25:59;20.40;92.10
44894;DHT22;30625;52.206;21.030;2023-08-24T05:28:25;20.40;91.70
44894;DHT22;30625;52.206;21.030;2023-08-24T05:33:25;20.60;91.00
44894;DHT22;30625;52.206;21.030;2023-08-24T05:35:56;20.60;91.20
44894;DHT22;30625;52.206;21.030;2023-08-24T05:38:24;20.60;91.00
44894;DHT22;30625;52.206;21.030;2023-08-24T05:40:50;20.60;90.60
44894;DHT22;30625;52.206;21.030;2023-08-24T05:43:15;20.70;91.10
44894;DHT22;30625;52.206;21.030;2023-08-24T05:45:41;20.70;90.80
44894;DHT22;30625;52.206;21.030;2023-08-24T05:48:09;20.80;91.50
44894;DHT22;30625;52.206;21.030;2023-08-24T05:50:35;20.90;91.20
44894;DHT22;30625;52.206;21.030;2023-08-24T05:55:31;21.70;91.50
44894;DHT22;30625;52.206;21.030;2023-08-24T05:58:00;22.20;90.00
44894;DHT22;30625;52.206;21.030;2023-08-24T06:00:26;22.30;89.40
44894;DHT22;30625;52.206;21.030;2023-08-24T06:02:57;22.90;88.80
44894;DHT22;30625;52.206;21.030;2023-08-24T06:05:25;23.90;85.80
44894;DHT22;30625;52.206;21.030;2023-08-24T06:07:52;25.40;83.90
44894;DHT22;30625;52.206;21.030;2023-08-24T06:10:17;28.90;87.40
44894;DHT22;30625;52.206;21.030;2023-08-24T06:12:43;26.10;81.60
44894;DHT22;30625;52.206;21.030;2023-08-24T06:15:09;26.70;77.80
44894;DHT22;30625;52.206;21.030;2023-08-24T06:17:36;27.00;78.20
44894;DHT22;30625;52.206;21.030;2023-08-24T06:20:05;27.70;79.70
44894;DHT22;30625;52.206;21.030;2023-08-24T06:22:31;29.10;75.70
44894;DHT22;30625;52.206;21.030;2023-08-24T06:24:57;28.50;75.00
44894;DHT22;30625;52.206;21.030;2023-08-24T06:27:25;28.40;70.70
44894;DHT22;30625;52.206;21.030;2023-08-24T06:29:52;29.10;72.50
44894;DHT22;30625;52.206;21.030;2023-08-24T06:32:17;29.70;76.20
44894;DHT22;30625;52.206;21.030;2023-08-24T06:34:43;29.40;71.70
44894;DHT22;30625;52.206;21.030;2023-08-24T06:37:11;29.80;68.50
44894;DHT22;30625;52.206;21.030;2023-08-24T06:39:36;30.60;72.30
44894;DHT22;30625;52.206;21.030;2023-08-24T06:42:02;30.70;70.90
44894;DHT22;30625;52.206;21.030;2023-08-24T06:44:28;31.10;73.30
44894;DHT22;30625;52.206;21.030;2023-08-24T06:46:53;30.60;66.50
44894;DHT22;30625;52.206;21.030;2023-08-24T06:49:19;30.60;66.70
44894;DHT22;30625;52.206;21.030;2023-08-24T06:51:45;30.80;65.20
44894;DHT22;30625;52.206;21.030;2023-08-24T06:54:11;31.40;70.00
44894;DHT22;30625;52.206;21.030;2023-08-24T06:56:37;28.00;68.00
44894;DHT22;30625;52.206;21.030;2023-08-24T07:01:32;32.00;64.20
44894;DHT22;30625;52.206;21.030;2023-08-24T07:03:58;32.30;70.50
44894;DHT22;30625;52.206;21.030;2023-08-24T07:06:24;30.40;64.90
44894;DHT22;30625;52.206;21.030;2023-08-24T07:08:50;30.00;64.70
44894;DHT22;30625;52.206;21.030;2023-08-24T07:11:15;28.70;67.10
44894;DHT22;30625;52.206;21.030;2023-08-24T07:13:42;28.50;66.80
44894;DHT22;30625;52.206;21.030;2023-08-24T07:16:08;27.50;69.50
44894;DHT22;30625;52.206;21.030;2023-08-24T07:18:33;27.10;70.40
44894;DHT22;30625;52.206;21.030;2023-08-24T07:20:59;26.70;72.40
44894;DHT22;30625;52.206;21.030;2023-08-24T07:23:25;26.40;71.30
44894;DHT22;30625;52.206;21.030;2023-08-24T07:25:54;25.90;74.00
44894;DHT22;30625;52.206;21.030;2023-08-24T07:28:19;25.60;74.90
44894;DHT22;30625;52.206;21.030;2023-08-24T07:30:45;25.50;75.50
44894;DHT22;30625;52.206;21.030;2023-08-24T07:33:11;25.30;75.60
44894;DHT22;30625;52.206;21.030;2023-08-24T07:35:36;25.10;75.90
44894;DHT22;30625;52.206;21.030;2023-08-24T07:38:02;24.90;76.40
44894;DHT22;30625;52.206;21.030;2023-08-24T07:40:30;24.80;76.10
44894;DHT22;30625;52.206;21.030;2023-08-24T07:42:55;24.80;76.20
44894;DHT22;30625;52.206;21.030;2023-08-24T07:45:21;24.60;77.90
44894;DHT22;30625;52.206;21.030;2023-08-24T07:47:48;24.60;78.80
44894;DHT22;30625;52.206;21.030;2023-08-24T07:50:14;24.60;77.80
44894;DHT22;30625;52.206;21.030;2023-08-24T07:52:40;24.60;78.20
44894;DHT22;30625;52.206;21.030;2023-08-24T07:55:06;24.50;76.90
44894;DHT22;30625;52.206;21.030;2023-08-24T07:57:35;24.30;77.30
44894;DHT22;30625;52.206;21.030;2023-08-24T08:00:01;24.60;79.20
44894;DHT22;30625;52.206;21.030;2023-08-24T08:02:27;24.60;78.10
44894;DHT22;30625;52.206;21.030;2023-08-24T08:04:56;24.60;78.80
44894;DHT22;30625;52.206;21.030;2023-08-24T08:07:28;24.70;78.20
44894;DHT22;30625;52.206;21.030;2023-08-24T08:09:54;24.80;76.90
44894;DHT22;30625;52.206;21.030;2023-08-24T08:12:19;24.70;77.50
44894;DHT22;30625;52.206;21.030;2023-08-24T08:14:45;24.80;76.30
44894;DHT22;30625;52.206;21.030;2023-08-24T08:17:11;24.70;77.00
44894;DHT22;30625;52.206;21.030;2023-08-24T08:19:36;24.70;76.60
44894;DHT22;30625;52.206;21.030;2023-08-24T08:22:03;24.70;76.60
44894;DHT22;30625;52.206;21.030;2023-08-24T08:24:29;24.70;77.20
44894;DHT22;30625;52.206;21.030;2023-08-24T08:26:55;24.80;77.40
44894;DHT22;30625;52.206;21.030;2023-08-24T08:29:23;24.80;77.30
44894;DHT22;30625;52.206;21.030;2023-08-24T08:31:49;24.90;75.50
44894;DHT22;30625;52.206;21.030;2023-08-24T08:34:15;25.00;76.10
44894;DHT22;30625;52.206;21.030;2023-08-24T08:36:43;25.10;76.00
44894;DHT22;30625;52.206;21.030;2023-08-24T08:39:09;25.10;75.10
44894;DHT22;30625;52.206;21.030;2023-08-24T08:41:44;25.20;75.90
44894;DHT22;30625;52.206;21.030;2023-08-24T08:44:12;25.30;76.70
44894;DHT22;30625;52.206;21.030;2023-08-24T08:46:38;25.50;76.20
44894;DHT22;30625;52.206;21.030;2023-08-24T08:49:04;25.50;75.00
44894;DHT22;30625;52.206;21.030;2023-08-24T08:51:37;25.60;75.70
44894;DHT22;30625;52.206;21.030;2023-08-24T08:54:06;25.60;75.60
44894;DHT22;30625;52.206;21.030;2023-08-24T08:56:32;25.60;75.30
44894;DHT22;30625;52.206;21.030;2023-08-24T08:58:58;25.50;74.90
44894;DHT22;30625;52.206;21.030;2023-08-24T09:01:24;25.70;75.80
44894;DHT22;30625;52.206;21.030;2023-08-24T09:03:53;25.90;74.60
44894;DHT22;30625;52.206;21.030;2023-08-24T09:06:19;25.80;73.80
44894;DHT22;30625;52.206;21.030;2023-08-24T09:08:45;25.80;73.40
44894;DHT22;30625;52.206;21.030;2023-08-24T09:11:10;25.90;73.80
44894;DHT22;30625;52.206;21.030;2023-08-24T09:13:36;25.80;73.80
44894;DHT22;30625;52.206;21.030;2023-08-24T09:16:05;25.70;76.40
44894;DHT22;30625;52.206;21.030;2023-08-24T09:18:37;25.70;74.20
44894;DHT22;30625;52.206;21.030;2023-08-24T09:21:12;25.60;74.90
44894;DHT22;30625;52.206;21.030;2023-08-24T09:23:43;25.60;75.10
44894;DHT22;30625;52.206;21.030;2023-08-24T09:26:09;25.60;76.70
44894;DHT22;30625;52.206;21.030;2023-08-24T09:28:34;25.60;75.70
44894;DHT22;30625;52.206;21.030;2023-08-24T09:31:01;25.60;75.50
44894;DHT22;30625;52.206;21.030;2023-08-24T09:38:22;25.50;76.20
44894;DHT22;30625;52.206;21.030;2023-08-24T09:40:54;25.50;79.30
44894;DHT22;30625;52.206;21.030;2023-08-24T09:43:31;25.50;77.50
44894;DHT22;30625;52.206;21.030;2023-08-24T09:45:59;25.60;77.40
44894;DHT22;30625;52.206;21.030;2023-08-24T09:48:25;25.50;75.10
44894;DHT22;30625;52.206;21.030;2023-08-24T09:50:51;25.70;72.70
44894;DHT22;30625;52.206;21.030;2023-08-24T09:53:18;25.70;73.70
44894;DHT22;30625;52.206;21.030;2023-08-24T09:55:47;25.70;73.60
44894;DHT22;30625;52.206;21.030;2023-08-24T09:58:14;25.80;73.30
44894;DHT22;30625;52.206;21.030;2023-08-24T10:00:41;25.80;74.00
44894;DHT22;30625;52.206;21.030;2023-08-24T10:03:09;25.80;75.50
44894;DHT22;30625;52.206;21.030;2023-08-24T10:05:36;26.00;74.80
44894;DHT22;30625;52.206;21.030;2023-08-24T10:08:02;26.00;73.00
44894;DHT22;30625;52.206;21.030;2023-08-24T10:10:28;25.90;72.60
44894;DHT22;30625;52.206;21.030;2023-08-24T10:12:59;25.90;72.70
44894;DHT22;30625;52.206;21.030;2023-08-24T10:15:26;26.00;75.60
44894;DHT22;30625;52.206;21.030;2023-08-24T10:20:27;26.20;75.80
44894;DHT22;30625;52.206;21.030;2023-08-24T10:28:05;26.20;75.00
44894;DHT22;30625;52.206;21.030;2023-08-24T10:30:34;26.10;76.10
44894;DHT22;30625;52.206;21.030;2023-08-24T10:33:00;26.00;76.30
44894;DHT22;30625;52.206;21.030;2023-08-24T10:35:30;26.10;74.60
44894;DHT22;30625;52.206;21.030;2023-08-24T10:38:05;26.10;75.80
44894;DHT22;30625;52.206;21.030;2023-08-24T10:40:35;26.10;75.60
44894;DHT22;30625;52.206;21.030;2023-08-24T10:43:03;26.20;73.80
44894;DHT22;30625;52.206;21.030;2023-08-24T10:48:18;26.20;71.50
44894;DHT22;30625;52.206;21.030;2023-08-24T10:53:40;26.30;72.70
44894;DHT22;30625;52.206;21.030;2023-08-24T10:58:41;26.30;74.10
44894;DHT22;30625;52.206;21.030;2023-08-24T11:01:16;26.30;73.80
44894;DHT22;30625;52.206;21.030;2023-08-24T11:03:54;26.20;74.00
44894;DHT22;30625;52.206;21.030;2023-08-24T11:06:24;26.30;73.50
44894;DHT22;30625;52.206;21.030;2023-08-24T11:09:06;26.30;74.30
44894;DHT22;30625;52.206;21.030;2023-08-24T11:11:38;26.30;74.30
44894;DHT22;30625;52.206;21.030;2023-08-24T11:16:48;26.40;73.10
44894;DHT22;30625;52.206;21.030;2023-08-24T11:19:14;26.40;74.80
44894;DHT22;30625;52.206;21.030;2023-08-24T11:21:44;26.40;75.00
44894;DHT22;30625;52.206;21.030;2023-08-24T11:24:11;26.50;73.60
44894;DHT22;30625;52.206;21.030;2023-08-24T11:26:42;26.50;73.30
44894;DHT22;30625;52.206;21.030;2023-08-24T11:29:13;26.60;73.50
44894;DHT22;30625;52.206;21.030;2023-08-24T11:31:39;26.70;72.20
44894;DHT22;30625;52.206;21.030;2023-08-24T11:34:05;26.70;72.10
44894;DHT22;30625;52.206;21.030;2023-08-24T11:36:48;26.50;71.60
44894;DHT22;30625;52.206;21.030;2023-08-24T11:39:18;26.50;72.80
44894;DHT22;30625;52.206;21.030;2023-08-24T11:42:01;26.50;72.20
44894;DHT22;30625;52.206;21.030;2023-08-24T11:44:28;26.50;72.50
44894;DHT22;30625;52.206;21.030;2023-08-24T11:49:32;26.70;71.60
44894;DHT22;30625;52.206;21.030;2023-08-24T11:51:58;26.60;70.80
44894;DHT22;30625;52.206;21.030;2023-08-24T11:54:26;26.80;71.80
44894;DHT22;30625;52.206;21.030;2023-08-24T11:56:52;26.80;73.00
44894;DHT22;30625;52.206;21.030;2023-08-24T11:59:21;26.90;70.50
44894;DHT22;30625;52.206;21.030;2023-08-24T12:01:47;27.20;71.20
44894;DHT22;30625;52.206;21.030;2023-08-24T12:09:15;27.70;69.00
44894;DHT22;30625;52.206;21.030;2023-08-24T12:11:44;27.70;69.00
44894;DHT22;30625;52.206;21.030;2023-08-24T12:16:40;27.80;69.80
44894;DHT22;30625;52.206;21.030;2023-08-24T12:19:07;27.90;68.90
44894;DHT22;30625;52.206;21.030;2023-08-24T12:21:33;28.00;69.20
44894;DHT22;30625;52.206;21.030;2023-08-24T12:24:00;28.00;69.20
44894;DHT22;30625;52.206;21.030;2023-08-24T12:26:26;28.10;70.40
44894;DHT22;30625;52.206;21.030;2023-08-24T12:28:52;28.00;66.80
44894;DHT22;30625;52.206;21.030;2023-08-24T12:31:24;28.20;68.80
44894;DHT22;30625;52.206;21.030;2023-08-24T12:34:01;28.30;68.00
44894;DHT22;30625;52.206;21.030;2023-08-24T12:36:33;28.40;67.60
44894;DHT22;30625;52.206;21.030;2023-08-24T12:38:59;28.40;67.20
44894;DHT22;30625;52.206;21.030;2023-08-24T12:41:25;28.40;65.90
44894;DHT22;30625;52.206;21.030;2023-08-24T12:43:50;28.20;65.40
44894;DHT22;30625;52.206;21.030;2023-08-24T12:46:17;28.30;66.90
44894;DHT22;30625;52.206;21.030;2023-08-24T12:48:45;28.20;67.40
44894;DHT22;30625;52.206;21.030;2023-08-24T12:51:11;28.20;66.20
44894;DHT22;30625;52.206;21.030;2023-08-24T12:53:37;28.10;65.30
44894;DHT22;30625;52.206;21.030;2023-08-24T12:56:03;28.00;65.90
44894;DHT22;30625;52.206;21.030;2023-08-24T12:58:29;28.10;67.00
44894;DHT22;30625;52.206;21.030;2023-08-24T13:00:55;28.10;67.10
44894;DHT22;30625;52.206;21.030;2023-08-24T13:03:21;28.10;68.30
44894;DHT22;30625;52.206;21.030;2023-08-24T13:05:46;28.00;67.50
44894;DHT22;30625;52.206;21.030;2023-08-24T13:08:17;28.00;69.80
44894;DHT22;30625;52.206;21.030;2023-08-24T13:10:46;28.00;67.70
44894;DHT22;30625;52.206;21.030;2023-08-24T13:13:12;28.00;69.80
44894;DHT22;30625;52.206;21.030;2023-08-24T13:15:38;28.00;68.90
44894;DHT22;30625;52.206;21.030;2023-08-24T13:20:39;28.20;71.90
44894;DHT22;30625;52.206;21.030;2023-08-24T13:23:05;28.30;71.20
44894;DHT22;30625;52.206;21.030;2023-08-24T13:25:30;28.40;68.80
44894;DHT22;30625;52.206;21.030;2023-08-24T13:28:02;28.20;68.50
44894;DHT22;30625;52.206;21.030;2023-08-24T13:30:27;28.10;69.10
44894;DHT22;30625;52.206;21.030;2023-08-24T13:32:54;28.00;69.50
44894;DHT22;30625;52.206;21.030;2023-08-24T13:35:19;28.00;69.50
44894;DHT22;30625;52.206;21.030;2023-08-24T13:37:48;27.80;68.70
44894;DHT22;30625;52.206;21.030;2023-08-24T13:40:16;27.80;68.80
44894;DHT22;30625;52.206;21.030;2023-08-24T13:42:42;27.80;70.50
44894;DHT22;30625;52.206;21.030;2023-08-24T13:45:07;27.90;71.80
44894;DHT22;30625;52.206;21.030;2023-08-24T13:47:33;27.90;70.00
44894;DHT22;30625;52.206;21.030;2023-08-24T13:49:59;28.00;71.30
44894;DHT22;30625;52.206;21.030;2023-08-24T13:52:24;28.00;69.70
44894;DHT22;30625;52.206;21.030;2023-08-24T13:54:50;28.10;71.00
44894;DHT22;30625;52.206;21.030;2023-08-24T13:57:16;28.00;69.60
44894;DHT22;30625;52.206;21.030;2023-08-24T13:59:41;27.90;70.60
44894;DHT22;30625;52.206;21.030;2023-08-24T14:02:07;27.80;68.70
44894;DHT22;30625;52.206;21.030;2023-08-24T14:04:33;27.90;69.80
44894;DHT22;30625;52.206;21.030;2023-08-24T14:06:59;27.90;70.80
44894;DHT22;30625;52.206;21.030;2023-08-24T14:09:24;28.00;69.00
44894;DHT22;30625;52.206;21.030;2023-08-24T14:11:50;27.90;68.50
44894;DHT22;30625;52.206;21.030;2023-08-24T14:14:37;27.80;69.10
44894;DHT22;30625;52.206;21.030;2023-08-24T14:17:12;27.70;67.80
44894;DHT22;30625;52.206;21.030;2023-08-24T14:19:42;27.60;69.40
44894;DHT22;30625;52.206;21.030;2023-08-24T14:22:07;27.50;67.40
44894;DHT22;30625;52.206;21.030;2023-08-24T14:24:33;27.30;69.00
44894;DHT22;30625;52.206;21.030;2023-08-24T14:27:00;27.20;68.70
44894;DHT22;30625;52.206;21.030;2023-08-24T14:29:25;27.10;68.60
44894;DHT22;30625;52.206;21.030;2023-08-24T14:31:51;27.10;68.60
44894;DHT22;30625;52.206;21.030;2023-08-24T14:34:17;27.00;68.60
44894;DHT22;30625;52.206;21.030;2023-08-24T14:36:42;27.00;69.50
44894;DHT22;30625;52.206;21.030;2023-08-24T14:39:08;26.90;70.50
44894;DHT22;30625;52.206;21.030;2023-08-24T14:41:34;26.80;71.20
44894;DHT22;30625;52.206;21.030;2023-08-24T14:43:59;26.80;70.30
44894;DHT22;30625;52.206;21.030;2023-08-24T14:46:25;26.70;70.60
44894;DHT22;30625;52.206;21.030;2023-08-24T14:48:50;26.80;71.50
44894;DHT22;30625;52.206;21.030;2023-08-24T14:51:16;26.70;70.20
44894;DHT22;30625;52.206;21.030;2023-08-24T14:53:42;26.70;70.20
44894;DHT22;30625;52.206;21.030;2023-08-24T14:56:08;26.70;71.70
44894;DHT22;30625;52.206;21.030;2023-08-24T14:58:35;26.70;71.40
44894;DHT22;30625;52.206;21.030;2023-08-24T15:01:06;26.70;71.80
44894;DHT22;30625;52.206;21.030;2023-08-24T15:03:32;26.70;70.50
44894;DHT22;30625;52.206;21.030;2023-08-24T15:05:58;26.60;70.00
44894;DHT22;30625;52.206;21.030;2023-08-24T15:08:24;26.50;70.90
44894;DHT22;30625;52.206;21.030;2023-08-24T15:10:50;26.50;71.60
44894;DHT22;30625;52.206;21.030;2023-08-24T15:13:16;26.50;71.80
44894;DHT22;30625;52.206;21.030;2023-08-24T15:15:41;26.50;71.20
44894;DHT22;30625;52.206;21.030;2023-08-24T15:18:07;26.50;72.70
44894;DHT22;30625;52.206;21.030;2023-08-24T15:30:47;26.40;73.10
44894;DHT22;30625;52.206;21.030;2023-08-24T15:33:13;26.40;73.10
44894;DHT22;30625;52.206;21.030;2023-08-24T15:35:42;26.30;73.60
44894;DHT22;30625;52.206;21.030;2023-08-24T15:38:08;26.20;73.00
44894;DHT22;30625;52.206;21.030;2023-08-24T15:40:37;26.20;73.80
44894;DHT22;30625;52.206;21.030;2023-08-24T15:43:03;26.20;73.00
44894;DHT22;30625;52.206;21.030;2023-08-24T15:45:29;26.20;74.20
44894;DHT22;30625;52.206;21.030;2023-08-24T15:48:03;26.10;73.10
44894;DHT22;30625;52.206;21.030;2023-08-24T15:50:29;26.10;73.00
44894;DHT22;30625;52.206;21.030;2023-08-24T15:52:55;26.00;73.10
44894;DHT22;30625;52.206;21.030;2023-08-24T15:55:30;26.00;73.40
44894;DHT22;30625;52.206;21.030;2023-08-24T15:58:00;26.00;73.60
44894;DHT22;30625;52.206;21.030;2023-08-24T16:00:26;25.90;73.40
44894;DHT22;30625;52.206;21.030;2023-08-24T16:02:52;25.80;73.80
44894;DHT22;30625;52.206;21.030;2023-08-24T16:05:17;25.80;73.90
44894;DHT22;30625;52.206;21.030;2023-08-24T16:07:46;25.80;73.70
44894;DHT22;30625;52.206;21.030;2023-08-24T16:10:12;25.80;73.00
44894;DHT22;30625;52.206;21.030;2023-08-24T16:12:38;25.80;71.90